sensor_id;sensor_type;location;lat;lon;timestamp;P1;durP1;ratioP1;P2;durP2;ratioP2
45730;SDS011;31440;48.584;13.460;2022-10-16T00:00:32;14.82;;;9.48;;
45730;SDS011;31440;48.584;13.460;2022-10-16T00:02:59;21.33;;;9.68;;
45730;SDS011;31440;48.584;13.460;2022-10-16T00:05:25;20.40;;;9.60;;
45730;SDS011;31440;48.584;13.460;2022-10-16T00:07:50;16.52;;;9.35;;
45730;SDS011;31440;48.584;13.460;2022-10-16T00:10:16;18.50;;;10.45;;
45730;SDS011;31440;48.584;13.460;2022-10-16T00:12:42;17.60;;;9.77;;
45730;SDS011;31440;48.584;13.460;2022-10-16T00:15:07;17.38;;;10.48;;
45730;SDS011;31440;48.584;13.460;2022-10-16T00:17:33;21.58;;;11.57;;
45730;SDS011;31440;48.584;13.460;2022-10-16T00:19:58;43.03;;;11.55;;
45730;SDS011;31440;48.584;13.460;2022-10-16T00:22:42;34.67;;;10.75;;
45730;SDS011;31440;48.584;13.460;2022-10-16T00:25:08;140.93;;;16.50;;
45730;SDS011;31440;48.584;13.460;2022-10-16T00:27:34;17.08;;;9.68;;
45730;SDS011;31440;48.584;13.460;2022-10-16T00:30:00;18.50;;;9.82;;
45730;SDS011;31440;48.584;13.460;2022-10-16T00:32:25;17.48;;;10.02;;
45730;SDS011;31440;48.584;13.460;2022-10-16T00:34:51;18.73;;;10.45;;
45730;SDS011;31440;48.584;13.460;2022-10-16T00:37:20;20.35;;;10.88;;
45730;SDS011;31440;48.584;13.460;2022-10-16T00:39:46;23.00;;;12.07;;
45730;SDS011;31440;48.584;13.460;2022-10-16T00:42:15;17.90;;;10.60;;
45730;SDS011;31440;48.584;13.460;2022-10-16T00:44:44;22.58;;;11.38;;
45730;SDS011;31440;48.584;13.460;2022-10-16T00:49:58;17.10;;;10.45;;
45730;SDS011;31440;48.584;13.460;2022-10-16T00:52:30;18.90;;;9.75;;
45730;SDS011;31440;48.584;13.460;2022-10-16T00:54:56;25.70;;;11.32;;
45730;SDS011;31440;48.584;13.460;2022-10-16T00:57:23;20.25;;;10.90;;
45730;SDS011;31440;48.584;13.460;2022-10-16T00:59:50;18.58;;;10.55;;
45730;SDS011;31440;48.584;13.460;2022-10-16T01:02:16;20.55;;;9.43;;
45730;SDS011;31440;48.584;13.460;2022-10-16T01:04:51;18.38;;;9.93;;
45730;SDS011;31440;48.584;13.460;2022-10-16T01:07:27;25.30;;;12.20;;
45730;SDS011;31440;48.584;13.460;2022-10-16T01:13:24;22.15;;;10.63;;
45730;SDS011;31440;48.584;13.460;2022-10-16T01:16:12;26.35;;;10.70;;
45730;SDS011;31440;48.584;13.460;2022-10-16T01:18:45;22.63;;;10.10;;
45730;SDS011;31440;48.584;13.460;2022-10-16T01:21:16;55.20;;;11.25;;
45730;SDS011;31440;48.584;13.460;2022-10-16T01:23:51;30.65;;;12.50;;
45730;SDS011;31440;48.584;13.460;2022-10-16T01:26:50;112.15;;;10.75;;
45730;SDS011;31440;48.584;13.460;2022-10-16T01:29:34;232.23;;;14.60;;
45730;SDS011;31440;48.584;13.460;2022-10-16T01:40:24;24.98;;;10.93;;
45730;SDS011;31440;48.584;13.460;2022-10-16T01:43:35;17.90;;;7.95;;
45730;SDS011;31440;48.584;13.460;2022-10-16T01:45:44;49.28;;;7.68;;
45730;SDS011;31440;48.584;13.460;2022-10-16T01:48:11;35.08;;;9.80;;
45730;SDS011;31440;48.584;13.460;2022-10-16T01:50:40;21.35;;;10.13;;
45730;SDS011;31440;48.584;13.460;2022-10-16T01:53:08;32.22;;;9.43;;
45730;SDS011;31440;48.584;13.460;2022-10-16T01:55:38;71.35;;;11.48;;
45730;SDS011;31440;48.584;13.460;2022-10-16T01:58:10;53.75;;;8.02;;
45730;SDS011;31440;48.584;13.460;2022-10-16T02:00:38;56.65;;;8.18;;
45730;SDS011;31440;48.584;13.460;2022-10-16T02:03:07;33.08;;;9.00;;
45730;SDS011;31440;48.584;13.460;2022-10-16T02:05:46;61.45;;;9.30;;
45730;SDS011;31440;48.584;13.460;2022-10-16T02:08:16;30.95;;;8.02;;
45730;SDS011;31440;48.584;13.460;2022-10-16T02:10:42;28.73;;;8.30;;
45730;SDS011;31440;48.584;13.460;2022-10-16T02:16:03;22.05;;;8.45;;
45730;SDS011;31440;48.584;13.460;2022-10-16T02:18:28;22.23;;;8.60;;
45730;SDS011;31440;48.584;13.460;2022-10-16T02:21:00;29.40;;;6.13;;
45730;SDS011;31440;48.584;13.460;2022-10-16T02:26:35;20.80;;;7.63;;
45730;SDS011;31440;48.584;13.460;2022-10-16T02:29:13;24.02;;;7.13;;
45730;SDS011;31440;48.584;13.460;2022-10-16T02:34:12;52.03;;;8.45;;
45730;SDS011;31440;48.584;13.460;2022-10-16T02:36:39;25.95;;;7.85;;
45730;SDS011;31440;48.584;13.460;2022-10-16T02:39:07;31.20;;;8.43;;
45730;SDS011;31440;48.584;13.460;2022-10-16T02:41:33;28.70;;;7.28;;
45730;SDS011;31440;48.584;13.460;2022-10-16T02:43:59;30.10;;;7.47;;
45730;SDS011;31440;48.584;13.460;2022-10-16T02:46:24;27.02;;;7.95;;
45730;SDS011;31440;48.584;13.460;2022-10-16T02:48:50;27.13;;;7.40;;
45730;SDS011;31440;48.584;13.460;2022-10-16T02:51:15;100.13;;;9.93;;
45730;SDS011;31440;48.584;13.460;2022-10-16T02:53:41;25.15;;;7.72;;
45730;SDS011;31440;48.584;13.460;2022-10-16T02:56:07;31.23;;;8.30;;
45730;SDS011;31440;48.584;13.460;2022-10-16T02:58:32;89.07;;;9.70;;
45730;SDS011;31440;48.584;13.460;2022-10-16T03:00:59;47.67;;;8.52;;
45730;SDS011;31440;48.584;13.460;2022-10-16T03:03:25;35.78;;;8.63;;
45730;SDS011;31440;48.584;13.460;2022-10-16T03:05:50;65.82;;;9.82;;
45730;SDS011;31440;48.584;13.460;2022-10-16T03:08:16;29.48;;;9.07;;
45730;SDS011;31440;48.584;13.460;2022-10-16T03:10:42;40.55;;;8.70;;
45730;SDS011;31440;48.584;13.460;2022-10-16T03:13:08;37.13;;;8.15;;
45730;SDS011;31440;48.584;13.460;2022-10-16T03:15:33;40.10;;;8.57;;
45730;SDS011;31440;48.584;13.460;2022-10-16T03:17:59;27.05;;;8.93;;
45730;SDS011;31440;48.584;13.460;2022-10-16T03:20:25;20.38;;;7.35;;
45730;SDS011;31440;48.584;13.460;2022-10-16T03:22:51;80.28;;;9.50;;
45730;SDS011;31440;48.584;13.460;2022-10-16T03:25:17;36.40;;;8.18;;
45730;SDS011;31440;48.584;13.460;2022-10-16T03:27:42;29.13;;;8.40;;
45730;SDS011;31440;48.584;13.460;2022-10-16T03:30:08;48.17;;;8.55;;
45730;SDS011;31440;48.584;13.460;2022-10-16T03:32:34;21.15;;;8.05;;
45730;SDS011;31440;48.584;13.460;2022-10-16T03:35:00;35.90;;;9.70;;
45730;SDS011;31440;48.584;13.460;2022-10-16T03:37:25;57.97;;;8.07;;
45730;SDS011;31440;48.584;13.460;2022-10-16T03:39:51;25.10;;;8.65;;
45730;SDS011;31440;48.584;13.460;2022-10-16T03:42:17;51.05;;;8.90;;
45730;SDS011;31440;48.584;13.460;2022-10-16T03:44:42;164.98;;;11.80;;
45730;SDS011;31440;48.584;13.460;2022-10-16T03:47:08;96.47;;;10.63;;
45730;SDS011;31440;48.584;13.460;2022-10-16T03:49:33;63.35;;;8.45;;
45730;SDS011;31440;48.584;13.460;2022-10-16T03:51:59;62.67;;;9.98;;
45730;SDS011;31440;48.584;13.460;2022-10-16T03:54:24;99.88;;;10.80;;
45730;SDS011;31440;48.584;13.460;2022-10-16T03:56:50;91.30;;;11.00;;
45730;SDS011;31440;48.584;13.460;2022-10-16T03:59:15;61.83;;;7.90;;
45730;SDS011;31440;48.584;13.460;2022-10-16T04:01:41;196.27;;;14.63;;
45730;SDS011;31440;48.584;13.460;2022-10-16T04:04:07;175.05;;;12.48;;
45730;SDS011;31440;48.584;13.460;2022-10-16T04:06:32;112.50;;;11.45;;
45730;SDS011;31440;48.584;13.460;2022-10-16T04:08:58;212.35;;;12.52;;
45730;SDS011;31440;48.584;13.460;2022-10-16T04:11:23;98.75;;;12.52;;
45730;SDS011;31440;48.584;13.460;2022-10-16T04:13:49;176.48;;;15.10;;
45730;SDS011;31440;48.584;13.460;2022-10-16T04:16:14;84.63;;;10.32;;
45730;SDS011;31440;48.584;13.460;2022-10-16T04:18:40;197.93;;;15.95;;
45730;SDS011;31440;48.584;13.460;2022-10-16T04:21:06;354.48;;;23.35;;
45730;SDS011;31440;48.584;13.460;2022-10-16T04:23:32;145.10;;;14.07;;
45730;SDS011;31440;48.584;13.460;2022-10-16T04:25:58;274.75;;;16.17;;
45730;SDS011;31440;48.584;13.460;2022-10-16T04:28:24;127.65;;;12.00;;
45730;SDS011;31440;48.584;13.460;2022-10-16T04:30:50;133.77;;;11.98;;
45730;SDS011;31440;48.584;13.460;2022-10-16T04:33:15;558.28;;;35.13;;
45730;SDS011;31440;48.584;13.460;2022-10-16T04:35:41;474.15;;;30.05;;
45730;SDS011;31440;48.584;13.460;2022-10-16T04:38:07;79.13;;;13.30;;
45730;SDS011;31440;48.584;13.460;2022-10-16T04:40:33;354.40;;;21.42;;
45730;SDS011;31440;48.584;13.460;2022-10-16T04:43:01;533.47;;;30.92;;
45730;SDS011;31440;48.584;13.460;2022-10-16T04:45:28;57.63;;;11.15;;
45730;SDS011;31440;48.584;13.460;2022-10-16T04:47:56;129.85;;;13.85;;
45730;SDS011;31440;48.584;13.460;2022-10-16T04:50:22;98.00;;;13.55;;
45730;SDS011;31440;48.584;13.460;2022-10-16T04:53:03;329.77;;;20.52;;
45730;SDS011;31440;48.584;13.460;2022-10-16T04:55:29;44.88;;;12.30;;
45730;SDS011;31440;48.584;13.460;2022-10-16T04:57:54;128.32;;;11.45;;
45730;SDS011;31440;48.584;13.460;2022-10-16T05:00:20;582.80;;;33.42;;
45730;SDS011;31440;48.584;13.460;2022-10-16T05:02:47;350.02;;;22.30;;
45730;SDS011;31440;48.584;13.460;2022-10-16T05:05:15;236.60;;;20.40;;
45730;SDS011;31440;48.584;13.460;2022-10-16T05:07:40;489.08;;;30.20;;
45730;SDS011;31440;48.584;13.460;2022-10-16T05:10:06;224.52;;;15.85;;
45730;SDS011;31440;48.584;13.460;2022-10-16T05:12:32;685.88;;;48.90;;
45730;SDS011;31440;48.584;13.460;2022-10-16T05:14:59;454.27;;;27.40;;
45730;SDS011;31440;48.584;13.460;2022-10-16T05:17:24;236.38;;;14.50;;
45730;SDS011;31440;48.584;13.460;2022-10-16T05:19:51;137.38;;;12.50;;
45730;SDS011;31440;48.584;13.460;2022-10-16T05:22:16;242.88;;;18.77;;
45730;SDS011;31440;48.584;13.460;2022-10-16T05:24:42;484.38;;;28.80;;
45730;SDS011;31440;48.584;13.460;2022-10-16T05:27:08;170.35;;;15.10;;
45730;SDS011;31440;48.584;13.460;2022-10-16T05:29:33;270.75;;;20.75;;
45730;SDS011;31440;48.584;13.460;2022-10-16T05:31:59;185.05;;;17.15;;
45730;SDS011;31440;48.584;13.460;2022-10-16T05:34:24;145.95;;;15.43;;
45730;SDS011;31440;48.584;13.460;2022-10-16T05:36:50;122.22;;;14.82;;
45730;SDS011;31440;48.584;13.460;2022-10-16T05:39:15;225.90;;;19.50;;
45730;SDS011;31440;48.584;13.460;2022-10-16T05:41:41;231.98;;;20.55;;
45730;SDS011;31440;48.584;13.460;2022-10-16T05:44:07;415.10;;;27.55;;
45730;SDS011;31440;48.584;13.460;2022-10-16T05:46:33;376.67;;;25.83;;
45730;SDS011;31440;48.584;13.460;2022-10-16T05:48:58;303.38;;;22.58;;
45730;SDS011;31440;48.584;13.460;2022-10-16T05:51:24;199.82;;;19.52;;
45730;SDS011;31440;48.584;13.460;2022-10-16T05:53:50;103.10;;;13.25;;
45730;SDS011;31440;48.584;13.460;2022-10-16T05:56:17;209.93;;;19.65;;
45730;SDS011;31440;48.584;13.460;2022-10-16T05:58:42;377.95;;;30.30;;
45730;SDS011;31440;48.584;13.460;2022-10-16T06:01:10;554.28;;;36.40;;
45730;SDS011;31440;48.584;13.460;2022-10-16T06:03:37;294.23;;;23.10;;
45730;SDS011;31440;48.584;13.460;2022-10-16T06:06:10;197.30;;;19.52;;
45730;SDS011;31440;48.584;13.460;2022-10-16T06:08:37;456.83;;;33.83;;
45730;SDS011;31440;48.584;13.460;2022-10-16T06:11:03;255.23;;;23.80;;
45730;SDS011;31440;48.584;13.460;2022-10-16T06:13:29;296.17;;;27.83;;
45730;SDS011;31440;48.584;13.460;2022-10-16T06:15:56;702.90;;;53.97;;
45730;SDS011;31440;48.584;13.460;2022-10-16T06:18:23;919.17;;;65.53;;
45730;SDS011;31440;48.584;13.460;2022-10-16T06:20:49;283.20;;;27.70;;
45730;SDS011;31440;48.584;13.460;2022-10-16T06:23:15;434.50;;;30.90;;
45730;SDS011;31440;48.584;13.460;2022-10-16T06:25:40;333.23;;;32.58;;
45730;SDS011;31440;48.584;13.460;2022-10-16T06:28:06;295.60;;;28.10;;
45730;SDS011;31440;48.584;13.460;2022-10-16T06:30:31;579.67;;;49.15;;
45730;SDS011;31440;48.584;13.460;2022-10-16T06:32:57;169.50;;;21.58;;
45730;SDS011;31440;48.584;13.460;2022-10-16T06:35:23;584.38;;;37.90;;
45730;SDS011;31440;48.584;13.460;2022-10-16T06:37:49;428.33;;;40.80;;
45730;SDS011;31440;48.584;13.460;2022-10-16T06:40:14;100.80;;;19.42;;
45730;SDS011;31440;48.584;13.460;2022-10-16T06:42:40;200.48;;;23.65;;
45730;SDS011;31440;48.584;13.460;2022-10-16T06:45:06;69.70;;;16.70;;
45730;SDS011;31440;48.584;13.460;2022-10-16T06:47:32;43.10;;;14.98;;
45730;SDS011;31440;48.584;13.460;2022-10-16T06:49:58;454.05;;;43.30;;
45730;SDS011;31440;48.584;13.460;2022-10-16T06:52:23;38.70;;;13.70;;
45730;SDS011;31440;48.584;13.460;2022-10-16T06:54:49;37.25;;;13.75;;
45730;SDS011;31440;48.584;13.460;2022-10-16T06:57:15;82.82;;;17.27;;
45730;SDS011;31440;48.584;13.460;2022-10-16T06:59:41;306.52;;;31.67;;
45730;SDS011;31440;48.584;13.460;2022-10-16T07:02:07;375.67;;;32.08;;
45730;SDS011;31440;48.584;13.460;2022-10-16T07:04:33;131.90;;;19.33;;
45730;SDS011;31440;48.584;13.460;2022-10-16T07:07:01;32.05;;;14.45;;
45730;SDS011;31440;48.584;13.460;2022-10-16T07:09:27;55.08;;;14.13;;
45730;SDS011;31440;48.584;13.460;2022-10-16T07:11:52;34.13;;;13.68;;
45730;SDS011;31440;48.584;13.460;2022-10-16T07:14:19;103.18;;;17.20;;
45730;SDS011;31440;48.584;13.460;2022-10-16T07:16:45;31.73;;;13.23;;
45730;SDS011;31440;48.584;13.460;2022-10-16T07:19:11;92.43;;;16.27;;
45730;SDS011;31440;48.584;13.460;2022-10-16T07:21:38;32.70;;;15.05;;
45730;SDS011;31440;48.584;13.460;2022-10-16T07:24:05;36.15;;;15.93;;
45730;SDS011;31440;48.584;13.460;2022-10-16T07:26:33;36.22;;;16.58;;
45730;SDS011;31440;48.584;13.460;2022-10-16T07:28:59;36.42;;;17.45;;
45730;SDS011;31440;48.584;13.460;2022-10-16T07:31:25;37.08;;;16.58;;
45730;SDS011;31440;48.584;13.460;2022-10-16T07:33:51;33.42;;;15.98;;
45730;SDS011;31440;48.584;13.460;2022-10-16T07:36:17;29.65;;;14.00;;
45730;SDS011;31440;48.584;13.460;2022-10-16T07:38:43;29.13;;;13.57;;
45730;SDS011;31440;48.584;13.460;2022-10-16T07:41:10;25.70;;;12.50;;
45730;SDS011;31440;48.584;13.460;2022-10-16T07:43:38;26.67;;;12.40;;
45730;SDS011;31440;48.584;13.460;2022-10-16T07:46:04;23.92;;;11.85;;
45730;SDS011;31440;48.584;13.460;2022-10-16T07:48:30;32.35;;;13.20;;
45730;SDS011;31440;48.584;13.460;2022-10-16T07:50:58;27.27;;;11.43;;
45730;SDS011;31440;48.584;13.460;2022-10-16T07:53:24;19.75;;;11.18;;
45730;SDS011;31440;48.584;13.460;2022-10-16T07:55:50;21.70;;;10.98;;
45730;SDS011;31440;48.584;13.460;2022-10-16T07:58:15;18.92;;;10.30;;
45730;SDS011;31440;48.584;13.460;2022-10-16T08:00:41;18.60;;;10.07;;
45730;SDS011;31440;48.584;13.460;2022-10-16T08:03:07;22.30;;;10.63;;
45730;SDS011;31440;48.584;13.460;2022-10-16T08:05:33;21.75;;;13.05;;
45730;SDS011;31440;48.584;13.460;2022-10-16T08:08:00;26.45;;;12.88;;
45730;SDS011;31440;48.584;13.460;2022-10-16T08:10:27;30.92;;;13.82;;
45730;SDS011;31440;48.584;13.460;2022-10-16T08:12:53;22.08;;;11.20;;
45730;SDS011;31440;48.584;13.460;2022-10-16T08:15:19;22.35;;;11.70;;
45730;SDS011;31440;48.584;13.460;2022-10-16T08:17:53;28.50;;;11.80;;
45730;SDS011;31440;48.584;13.460;2022-10-16T08:20:20;16.15;;;9.35;;
45730;SDS011;31440;48.584;13.460;2022-10-16T08:22:45;17.27;;;9.68;;
45730;SDS011;31440;48.584;13.460;2022-10-16T08:25:11;17.20;;;9.80;;
45730;SDS011;31440;48.584;13.460;2022-10-16T08:27:37;16.05;;;9.60;;
45730;SDS011;31440;48.584;13.460;2022-10-16T08:30:02;15.82;;;8.85;;
45730;SDS011;31440;48.584;13.460;2022-10-16T08:32:28;14.82;;;8.68;;
45730;SDS011;31440;48.584;13.460;2022-10-16T08:34:53;14.07;;;8.77;;
45730;SDS011;31440;48.584;13.460;2022-10-16T08:37:20;12.90;;;8.00;;
45730;SDS011;31440;48.584;13.460;2022-10-16T08:39:45;12.55;;;6.90;;
45730;SDS011;31440;48.584;13.460;2022-10-16T08:47:43;13.93;;;7.72;;
45730;SDS011;31440;48.584;13.460;2022-10-16T08:50:16;16.88;;;8.48;;
45730;SDS011;31440;48.584;13.460;2022-10-16T08:52:47;12.02;;;7.45;;
45730;SDS011;31440;48.584;13.460;2022-10-16T08:57:56;9.93;;;7.07;;
45730;SDS011;31440;48.584;13.460;2022-10-16T09:00:21;12.35;;;8.13;;
45730;SDS011;31440;48.584;13.460;2022-10-16T09:02:50;12.13;;;7.15;;
45730;SDS011;31440;48.584;13.460;2022-10-16T09:05:37;11.68;;;6.63;;
45730;SDS011;31440;48.584;13.460;2022-10-16T09:11:14;10.23;;;6.60;;
45730;SDS011;31440;48.584;13.460;2022-10-16T09:13:58;9.27;;;5.90;;
45730;SDS011;31440;48.584;13.460;2022-10-16T09:16:28;14.70;;;6.70;;
45730;SDS011;31440;48.584;13.460;2022-10-16T09:19:00;10.43;;;5.82;;
45730;SDS011;31440;48.584;13.460;2022-10-16T09:21:42;9.48;;;5.88;;
45730;SDS011;31440;48.584;13.460;2022-10-16T09:24:17;8.48;;;5.95;;
45730;SDS011;31440;48.584;13.460;2022-10-16T09:26:44;8.98;;;5.55;;
45730;SDS011;31440;48.584;13.460;2022-10-16T09:29:14;12.18;;;5.25;;
45730;SDS011;31440;48.584;13.460;2022-10-16T09:31:40;8.25;;;5.45;;
45730;SDS011;31440;48.584;13.460;2022-10-16T09:34:09;13.40;;;6.18;;
45730;SDS011;31440;48.584;13.460;2022-10-16T09:36:54;7.85;;;5.47;;
45730;SDS011;31440;48.584;13.460;2022-10-16T09:39:22;6.45;;;4.80;;
45730;SDS011;31440;48.584;13.460;2022-10-16T09:41:48;8.18;;;5.28;;
45730;SDS011;31440;48.584;13.460;2022-10-16T09:46:40;11.00;;;5.57;;
45730;SDS011;31440;48.584;13.460;2022-10-16T09:49:25;7.32;;;4.10;;
45730;SDS011;31440;48.584;13.460;2022-10-16T09:52:05;8.15;;;5.38;;
45730;SDS011;31440;48.584;13.460;2022-10-16T09:54:37;6.90;;;4.28;;
45730;SDS011;31440;48.584;13.460;2022-10-16T09:57:13;7.13;;;4.32;;
45730;SDS011;31440;48.584;13.460;2022-10-16T09:59:45;5.97;;;3.88;;
45730;SDS011;31440;48.584;13.460;2022-10-16T10:02:16;7.57;;;4.30;;
45730;SDS011;31440;48.584;13.460;2022-10-16T10:04:47;7.22;;;4.85;;
45730;SDS011;31440;48.584;13.460;2022-10-16T10:07:19;5.60;;;3.65;;
45730;SDS011;31440;48.584;13.460;2022-10-16T10:09:49;7.53;;;4.00;;
45730;SDS011;31440;48.584;13.460;2022-10-16T10:12:21;5.15;;;3.78;;
45730;SDS011;31440;48.584;13.460;2022-10-16T10:14:50;8.00;;;3.22;;
45730;SDS011;31440;48.584;13.460;2022-10-16T10:19:54;5.28;;;3.47;;
45730;SDS011;31440;48.584;13.460;2022-10-16T10:22:41;5.53;;;3.78;;
45730;SDS011;31440;48.584;13.460;2022-10-16T10:25:14;4.82;;;3.75;;
45730;SDS011;31440;48.584;13.460;2022-10-16T10:27:58;4.05;;;3.00;;
45730;SDS011;31440;48.584;13.460;2022-10-16T10:30:55;4.28;;;2.80;;
45730;SDS011;31440;48.584;13.460;2022-10-16T10:33:34;3.92;;;3.25;;
45730;SDS011;31440;48.584;13.460;2022-10-16T10:39:06;6.03;;;3.47;;
45730;SDS011;31440;48.584;13.460;2022-10-16T10:44:42;4.70;;;3.80;;
45730;SDS011;31440;48.584;13.460;2022-10-16T10:47:27;5.10;;;3.28;;
45730;SDS011;31440;48.584;13.460;2022-10-16T10:55:45;5.68;;;3.72;;
45730;SDS011;31440;48.584;13.460;2022-10-16T11:01:36;4.50;;;3.15;;
45730;SDS011;31440;48.584;13.460;2022-10-16T11:04:19;5.60;;;3.88;;
45730;SDS011;31440;48.584;13.460;2022-10-16T11:07:17;5.63;;;3.03;;
45730;SDS011;31440;48.584;13.460;2022-10-16T11:09:51;4.10;;;3.38;;
45730;SDS011;31440;48.584;13.460;2022-10-16T11:12:28;9.30;;;3.70;;
45730;SDS011;31440;48.584;13.460;2022-10-16T11:17:42;5.25;;;3.28;;
45730;SDS011;31440;48.584;13.460;2022-10-16T11:20:30;3.55;;;3.05;;
45730;SDS011;31440;48.584;13.460;2022-10-16T11:25:34;6.55;;;3.25;;
45730;SDS011;31440;48.584;13.460;2022-10-16T11:28:06;4.60;;;2.83;;
45730;SDS011;31440;48.584;13.460;2022-10-16T11:30:50;7.88;;;3.65;;
45730;SDS011;31440;48.584;13.460;2022-10-16T11:35:55;3.70;;;3.33;;
45730;SDS011;31440;48.584;13.460;2022-10-16T11:38:27;7.82;;;2.78;;
45730;SDS011;31440;48.584;13.460;2022-10-16T11:41:00;5.07;;;2.95;;
45730;SDS011;31440;48.584;13.460;2022-10-16T11:43:32;5.90;;;3.47;;
45730;SDS011;31440;48.584;13.460;2022-10-16T11:46:04;4.47;;;3.42;;
45730;SDS011;31440;48.584;13.460;2022-10-16T11:51:36;4.07;;;3.28;;
45730;SDS011;31440;48.584;13.460;2022-10-16T11:54:28;8.10;;;2.95;;
45730;SDS011;31440;48.584;13.460;2022-10-16T11:57:20;5.90;;;3.25;;
45730;SDS011;31440;48.584;13.460;2022-10-16T11:59:57;3.63;;;2.75;;
45730;SDS011;31440;48.584;13.460;2022-10-16T12:02:40;4.20;;;3.10;;
45730;SDS011;31440;48.584;13.460;2022-10-16T12:08:10;3.67;;;2.88;;
45730;SDS011;31440;48.584;13.460;2022-10-16T12:10:36;4.10;;;3.00;;
45730;SDS011;31440;48.584;13.460;2022-10-16T12:13:04;4.63;;;3.17;;
45730;SDS011;31440;48.584;13.460;2022-10-16T12:15:49;3.95;;;2.90;;
45730;SDS011;31440;48.584;13.460;2022-10-16T12:18:22;3.83;;;2.70;;
45730;SDS011;31440;48.584;13.460;2022-10-16T12:20:58;6.40;;;2.70;;
45730;SDS011;31440;48.584;13.460;2022-10-16T12:23:29;3.55;;;3.15;;
45730;SDS011;31440;48.584;13.460;2022-10-16T12:25:57;7.28;;;2.75;;
45730;SDS011;31440;48.584;13.460;2022-10-16T12:28:28;3.72;;;3.15;;
45730;SDS011;31440;48.584;13.460;2022-10-16T12:31:03;7.95;;;3.22;;
45730;SDS011;31440;48.584;13.460;2022-10-16T12:33:32;3.38;;;2.75;;
45730;SDS011;31440;48.584;13.460;2022-10-16T12:35:59;5.82;;;3.03;;
45730;SDS011;31440;48.584;13.460;2022-10-16T12:38:38;3.30;;;2.58;;
45730;SDS011;31440;48.584;13.460;2022-10-16T12:41:12;4.13;;;2.70;;
45730;SDS011;31440;48.584;13.460;2022-10-16T12:43:48;4.40;;;2.95;;
45730;SDS011;31440;48.584;13.460;2022-10-16T12:48:40;3.47;;;2.30;;
45730;SDS011;31440;48.584;13.460;2022-10-16T12:51:23;5.32;;;2.60;;
45730;SDS011;31440;48.584;13.460;2022-10-16T12:54:01;3.55;;;2.85;;
45730;SDS011;31440;48.584;13.460;2022-10-16T13:04:44;3.30;;;2.65;;
45730;SDS011;31440;48.584;13.460;2022-10-16T13:20:35;4.25;;;2.92;;
45730;SDS011;31440;48.584;13.460;2022-10-16T13:26:17;5.28;;;2.40;;
45730;SDS011;31440;48.584;13.460;2022-10-16T13:28:47;4.25;;;2.58;;
45730;SDS011;31440;48.584;13.460;2022-10-16T13:31:22;5.25;;;2.53;;
45730;SDS011;31440;48.584;13.460;2022-10-16T13:33:50;4.85;;;2.80;;
45730;SDS011;31440;48.584;13.460;2022-10-16T13:36:21;3.22;;;2.50;;
45730;SDS011;31440;48.584;13.460;2022-10-16T13:38:59;4.18;;;2.40;;
45730;SDS011;31440;48.584;13.460;2022-10-16T13:41:31;3.72;;;2.85;;
45730;SDS011;31440;48.584;13.460;2022-10-16T13:43:57;2.92;;;2.47;;
45730;SDS011;31440;48.584;13.460;2022-10-16T13:46:23;3.42;;;2.30;;
45730;SDS011;31440;48.584;13.460;2022-10-16T13:49:00;2.88;;;2.25;;
45730;SDS011;31440;48.584;13.460;2022-10-16T13:51:31;3.97;;;2.30;;
45730;SDS011;31440;48.584;13.460;2022-10-16T13:53:58;7.63;;;2.20;;
45730;SDS011;31440;48.584;13.460;2022-10-16T13:56:28;3.83;;;2.35;;
45730;SDS011;31440;48.584;13.460;2022-10-16T14:01:34;3.38;;;2.20;;
45730;SDS011;31440;48.584;13.460;2022-10-16T14:04:09;5.78;;;2.92;;
45730;SDS011;31440;48.584;13.460;2022-10-16T14:06:40;4.07;;;2.28;;
45730;SDS011;31440;48.584;13.460;2022-10-16T14:11:46;2.55;;;2.13;;
45730;SDS011;31440;48.584;13.460;2022-10-16T14:14:18;4.25;;;2.20;;
45730;SDS011;31440;48.584;13.460;2022-10-16T14:16:46;3.70;;;2.00;;
45730;SDS011;31440;48.584;13.460;2022-10-16T14:19:13;4.10;;;2.63;;
45730;SDS011;31440;48.584;13.460;2022-10-16T14:21:43;5.47;;;2.30;;
45730;SDS011;31440;48.584;13.460;2022-10-16T14:24:13;3.13;;;1.85;;
45730;SDS011;31440;48.584;13.460;2022-10-16T14:26:47;2.00;;;1.80;;
45730;SDS011;31440;48.584;13.460;2022-10-16T14:29:15;2.30;;;1.70;;
45730;SDS011;31440;48.584;13.460;2022-10-16T14:31:54;6.32;;;1.70;;
45730;SDS011;31440;48.584;13.460;2022-10-16T14:36:58;6.70;;;1.85;;
45730;SDS011;31440;48.584;13.460;2022-10-16T14:39:27;3.70;;;1.95;;
45730;SDS011;31440;48.584;13.460;2022-10-16T14:41:55;3.22;;;1.88;;
45730;SDS011;31440;48.584;13.460;2022-10-16T14:44:23;2.80;;;1.98;;
45730;SDS011;31440;48.584;13.460;2022-10-16T14:49:19;2.53;;;1.70;;
45730;SDS011;31440;48.584;13.460;2022-10-16T14:51:46;3.00;;;1.73;;
45730;SDS011;31440;48.584;13.460;2022-10-16T14:54:13;6.10;;;1.70;;
45730;SDS011;31440;48.584;13.460;2022-10-16T14:56:48;6.68;;;2.38;;
45730;SDS011;31440;48.584;13.460;2022-10-16T15:01:45;2.75;;;1.67;;
45730;SDS011;31440;48.584;13.460;2022-10-16T15:04:12;3.85;;;1.83;;
45730;SDS011;31440;48.584;13.460;2022-10-16T15:06:39;4.18;;;2.33;;
45730;SDS011;31440;48.584;13.460;2022-10-16T15:09:04;3.63;;;2.10;;
45730;SDS011;31440;48.584;13.460;2022-10-16T15:11:30;4.72;;;2.10;;
45730;SDS011;31440;48.584;13.460;2022-10-16T15:13:57;3.85;;;1.85;;
45730;SDS011;31440;48.584;13.460;2022-10-16T15:16:23;7.20;;;2.08;;
45730;SDS011;31440;48.584;13.460;2022-10-16T15:18:49;3.97;;;1.98;;
45730;SDS011;31440;48.584;13.460;2022-10-16T15:21:21;3.28;;;2.05;;
45730;SDS011;31440;48.584;13.460;2022-10-16T15:23:52;2.95;;;2.42;;
45730;SDS011;31440;48.584;13.460;2022-10-16T15:26:18;2.35;;;2.15;;
45730;SDS011;31440;48.584;13.460;2022-10-16T15:28:43;5.00;;;2.08;;
45730;SDS011;31440;48.584;13.460;2022-10-16T15:31:09;2.83;;;2.13;;
45730;SDS011;31440;48.584;13.460;2022-10-16T15:33:34;5.72;;;1.80;;
45730;SDS011;31440;48.584;13.460;2022-10-16T15:36:01;2.28;;;1.90;;
45730;SDS011;31440;48.584;13.460;2022-10-16T15:38:27;3.58;;;1.92;;
45730;SDS011;31440;48.584;13.460;2022-10-16T15:40:53;2.65;;;2.03;;
45730;SDS011;31440;48.584;13.460;2022-10-16T15:43:19;3.83;;;2.40;;
45730;SDS011;31440;48.584;13.460;2022-10-16T15:46:01;5.93;;;2.17;;
45730;SDS011;31440;48.584;13.460;2022-10-16T15:48:31;8.18;;;2.38;;
45730;SDS011;31440;48.584;13.460;2022-10-16T15:50:59;6.43;;;2.25;;
45730;SDS011;31440;48.584;13.460;2022-10-16T15:53:25;4.00;;;1.95;;
45730;SDS011;31440;48.584;13.460;2022-10-16T15:55:50;4.82;;;1.88;;
45730;SDS011;31440;48.584;13.460;2022-10-16T15:58:16;3.10;;;1.95;;
45730;SDS011;31440;48.584;13.460;2022-10-16T16:00:43;2.53;;;1.75;;
45730;SDS011;31440;48.584;13.460;2022-10-16T16:03:09;3.60;;;1.73;;
45730;SDS011;31440;48.584;13.460;2022-10-16T16:05:37;3.28;;;2.03;;
45730;SDS011;31440;48.584;13.460;2022-10-16T16:08:03;9.57;;;2.33;;
45730;SDS011;31440;48.584;13.460;2022-10-16T16:10:28;3.80;;;1.88;;
45730;SDS011;31440;48.584;13.460;2022-10-16T16:12:54;6.43;;;2.45;;
45730;SDS011;31440;48.584;13.460;2022-10-16T16:15:20;3.22;;;2.38;;
45730;SDS011;31440;48.584;13.460;2022-10-16T16:17:47;8.35;;;2.63;;